Overtown, United Kingdom
Current Conditions -  °F | °C
As of 2:20 PM on Friday 24 Oct 2014 (Local Time) from EGPF Reporting Station
Light Rain Light Rain  
Wind Chill: 50°   Ceiling: 3200
Heat Index: 50°   Visibility: 6mi
Dew Point: 46°   Wind: 13mph
Humidity: 87%   Direction: 220°SW
Pressure: 29.74"   Gusts: NA
Location:  55.75°N, 3.92°W
Report Text: EGPF 241320Z AUTO 22011KT 9999 -RA FEW018/// BKN032/// OVC049/// //////TCU 10/08 Q1007
Loading
Personal Weather Stations






























Interactive Weather Map
Tropical Storm Tracking
New forecast layout! Learn more

10-Day Weather Forecast

Advertisements
Track Severe Weather on mobile